Malaspina — WI6803 — position and weather

sailwx.info

Track history (hours):
 
Tides and Currents Weather Stations Pressure Air Temp Water Temp Dewpoint Dewpoint Depression Visibility Wind Speed Wind Dir Waves Ship Positions

Malaspina

Owner: ALASKA, STATE OF, ANCHORAGE, AK. More information available from US FCC via Universal Licensing System and Coast Guard Vessel Documentation Center.

Last reported at 2017-Apr-14 21:00 UTC. Time now 2017-Apr-24 11:15 UTC.
Position N 48°43' W 122°31'.
Warning: this ship's position is 9 days out of date.

Date/timePositionNaut miles runAvg speedWind from/ knotsBaromVisibWave heightAir tempDewpointWater temp
2017-Apr-14 21:00N 48°43' W 122°31'0 0.0
2017-Apr-14 20:30N 48°43' W 122°31'0 0.0
2017-Apr-14 20:00N 48°43' W 122°31'0 0.0
2017-Apr-14 19:31N 48°43' W 122°31'0 0.0
2017-Apr-14 18:58N 48°43' W 122°31'0 0.0
2017-Apr-14 18:30N 48°43' W 122°31'0 0.0
2017-Apr-14 18:00N 48°43' W 122°31'0 0.0
2017-Apr-14 17:20N 48°43' W 122°31'0 0.0
2017-Apr-14 17:00N 48°43' W 122°31'0 0.0
2017-Apr-14 16:30N 48°43' W 122°31'0 0.0
2017-Apr-14 15:59N 48°43' W 122°31'0 0.0
2017-Apr-14 15:26N 48°43' W 122°31'0 0.0
2017-Apr-14 15:00N 48°43' W 122°31'0 0.5
2017-Apr-14 14:30N 48°44' W 122°31'9 9.1
2017-Apr-14 13:30N 48°42' W 122°45'815.2
2017-Apr-14 13:00N 48°47' W 122°53'816.0
2017-Apr-14 12:31N 48°51' W 123°03'815.9
2017-Apr-14 12:00N 48°56' W 123°13'816.0
2017-Apr-14 11:30N 49°02' W 123°21'815.9
2017-Apr-14 11:00N 49°07' W 123°30'815.9
2017-Apr-14 10:30N 49°14' W 123°38'815.9
2017-Apr-14 10:00N 49°20' W 123°46'815.4
2017-Apr-14 09:30N 49°22' W 123°57'815.9
2017-Apr-14 09:00N 49°24' W 124°09'815.9
2017-Apr-14 08:30N 49°26' W 124°20'815.9
2017-Apr-14 08:00N 49°32' W 124°29'815.9
2017-Apr-14 07:31N 49°37' W 124°38'714.2
2017-Apr-14 07:00N 49°42' W 124°46'5 9.4
2017-Apr-14 06:30N 49°46' W 124°50'510.5
2017-Apr-14 06:01N 49°50' W 124°56'611.0
2017-Apr-14 05:31N 49°53' W 125°02'612.8
2017-Apr-14 05:00N 49°58' W 125°09'5 9.2
2017-Apr-14 04:31N 50°02' W 125°13'4 7.0
2017-Apr-14 04:00N 50°05' W 125°16'5 9.8
2017-Apr-14 03:31N 50°08' W 125°21'815.5
2017-Apr-14 03:00N 50°16' W 125°24'713.8
2017-Apr-14 02:31N 50°21' W 125°31'714.9
2017-Apr-14 02:01N 50°22' W 125°42'4614.9
2017-Apr-13 22:54N 50°39' W 126°50'715.7
2017-Apr-13 22:29N 50°44' W 126°58'715.5
2017-Apr-13 22:00N 50°48' W 127°08'815.6
2017-Apr-13 21:30N 50°52' W 127°18'815.6
2017-Apr-13 21:00N 50°57' W 127°28'714.8
2017-Apr-13 20:30N 51°02' W 127°37'815.3
2017-Apr-13 20:00N 51°06' W 127°46'  
2017-Apr-06 20:00N 51°12' W 127°54'   090 / 151001.0 5.4 7.2 9.4
Track history (hours):
 
Tides and Currents Weather Stations Pressure Air Temp Water Temp Dewpoint Dewpoint Depression Visibility Wind Speed Wind Dir Waves Ship Positions

Malaspina

Owner: ALASKA, STATE OF, ANCHORAGE, AK. More information available from US FCC via Universal Licensing System and Coast Guard Vessel Documentation Center.

Last reported at 2017-Apr-14 21:00 UTC. Time now 2017-Apr-24 11:15 UTC.
Position N 48°43' W 122°31'.
Warning: this ship's position is 9 days out of date.

Date/timePositionNaut miles runAvg speedWind from/ knotsBaromVisibWave heightAir tempDewpointWater temp
2017-Apr-14 21:00N 48°43' W 122°31'0 0.0
2017-Apr-14 20:30N 48°43' W 122°31'0 0.0
2017-Apr-14 20:00N 48°43' W 122°31'0 0.0
2017-Apr-14 19:31N 48°43' W 122°31'0 0.0
2017-Apr-14 18:58N 48°43' W 122°31'0 0.0
2017-Apr-14 18:30N 48°43' W 122°31'0 0.0
2017-Apr-14 18:00N 48°43' W 122°31'0 0.0
2017-Apr-14 17:20N 48°43' W 122°31'0 0.0
2017-Apr-14 17:00N 48°43' W 122°31'0 0.0
2017-Apr-14 16:30N 48°43' W 122°31'0 0.0
2017-Apr-14 15:59N 48°43' W 122°31'0 0.0
2017-Apr-14 15:26N 48°43' W 122°31'0 0.0
2017-Apr-14 15:00N 48°43' W 122°31'0 0.5
2017-Apr-14 14:30N 48°44' W 122°31'9 9.1
2017-Apr-14 13:30N 48°42' W 122°45'815.2
2017-Apr-14 13:00N 48°47' W 122°53'816.0
2017-Apr-14 12:31N 48°51' W 123°03'815.9
2017-Apr-14 12:00N 48°56' W 123°13'816.0
2017-Apr-14 11:30N 49°02' W 123°21'815.9
2017-Apr-14 11:00N 49°07' W 123°30'815.9
2017-Apr-14 10:30N 49°14' W 123°38'815.9
2017-Apr-14 10:00N 49°20' W 123°46'815.4
2017-Apr-14 09:30N 49°22' W 123°57'815.9
2017-Apr-14 09:00N 49°24' W 124°09'815.9
2017-Apr-14 08:30N 49°26' W 124°20'815.9
2017-Apr-14 08:00N 49°32' W 124°29'815.9
2017-Apr-14 07:31N 49°37' W 124°38'714.2
2017-Apr-14 07:00N 49°42' W 124°46'5 9.4
2017-Apr-14 06:30N 49°46' W 124°50'510.5
2017-Apr-14 06:01N 49°50' W 124°56'611.0
2017-Apr-14 05:31N 49°53' W 125°02'612.8
2017-Apr-14 05:00N 49°58' W 125°09'5 9.2
2017-Apr-14 04:31N 50°02' W 125°13'4 7.0
2017-Apr-14 04:00N 50°05' W 125°16'5 9.8
2017-Apr-14 03:31N 50°08' W 125°21'815.5
2017-Apr-14 03:00N 50°16' W 125°24'713.8
2017-Apr-14 02:31N 50°21' W 125°31'714.9
2017-Apr-14 02:01N 50°22' W 125°42'4614.9
2017-Apr-13 22:54N 50°39' W 126°50'715.7
2017-Apr-13 22:29N 50°44' W 126°58'715.5
2017-Apr-13 22:00N 50°48' W 127°08'815.6
2017-Apr-13 21:30N 50°52' W 127°18'815.6
2017-Apr-13 21:00N 50°57' W 127°28'714.8
2017-Apr-13 20:30N 51°02' W 127°37'815.3
2017-Apr-13 20:00N 51°06' W 127°46'  
2017-Apr-06 20:00N 51°12' W 127°54'   090 / 151001.0 5.4 7.2 9.4

Dump ship's entire track history